Time;durP1;ratioP1;P1;durP2;ratioP2;P2;SDS_P1;SDS_P2;PMS_P1;PMS_P2;Temp;Humidity;BMP_temperature;BMP_pressure;BME280_temperature;BME280_humidity;BME280_pressure;Samples;Min_cycle;Max_cycle;Signal;HPM_P1;HPM_P2
2022/07/18 00:00:21;;;;;;;;;;;;;;;17.38;51.42;101352.34;5037406;28;986;-61
2022/07/18 00:02:47;;;;;;;;;;;;;;;17.36;50.67;101353.72;5037279;28;1117;-61
2022/07/18 00:05:12;;;;;;;;;;;;;;;17.35;49.99;101344.66;5037511;28;1116;-60
2022/07/18 00:07:38;;;;;;;;;;;;;;;17.31;49.84;101340.78;5037307;28;1151;-61
2022/07/18 00:10:04;;;;;;;;;;;;;;;17.33;49.36;101343.25;5038510;28;1100;-60
2022/07/18 00:12:29;;;;;;;;;;;;;;;17.27;49.38;101351.44;5036850;28;1120;-60
2022/07/18 00:14:54;;;;;;;;;;;;;;;17.30;49.04;101358.34;5037809;28;1014;-61
2022/07/18 00:17:20;;;;;;;;;;;;;;;17.36;48.55;101353.72;5037161;28;1902;-60
2022/07/18 00:19:45;;;;;;;;;;;;;;;17.26;48.63;101359.97;5036922;28;2649;-60
2022/07/18 00:22:11;;;;;;;;;;;;;;;17.30;48.59;101355.59;5037439;28;1061;-60
2022/07/18 00:24:37;;;;;;;;;;;;;;;17.26;48.34;101359.97;5036880;28;1244;-61
2022/07/18 00:27:04;;;;;;;;;;;;;;;17.21;48.26;101360.75;5036922;28;1065;-62
2022/07/18 00:29:29;;;;;;;;;;;;;;;17.23;48.25;101360.50;5039070;28;1104;-62
2022/07/18 00:31:55;;;;;;;;;;;;;;;17.28;47.97;101349.56;5041529;28;1191;-62
2022/07/18 00:34:20;;;;;;;;;;;;;;;17.22;47.91;101332.19;5037457;28;1018;-62
2022/07/18 00:36:46;;;;;;;;;;;;;;;17.30;48.13;101341.03;5038095;28;1902;-62
2022/07/18 00:39:11;;;;;;;;;;;;;;;16.62;53.72;101356.13;5036948;28;1029;-61
2022/07/18 00:41:37;;;;;;;;;;;;;;;16.51;56.81;101366.16;5036813;28;1105;-61
2022/07/18 00:44:02;;;;;;;;;;;;;;;18.89;54.11;101368.38;5036511;28;1215;-61
2022/07/18 00:46:28;;;;;;;;;;;;;;;15.30;61.59;101363.19;5036409;28;1008;-61
2022/07/18 00:48:53;;;;;;;;;;;;;;;17.91;57.83;101376.34;5042884;28;2424;-61
2022/07/18 00:51:19;;;;;;;;;;;;;;;18.09;57.25;101361.25;5041893;28;974;-61
2022/07/18 00:53:45;;;;;;;;;;;;;;;15.61;61.70;101382.03;5036039;28;1205;-61
2022/07/18 00:56:11;;;;;;;;;;;;;;;18.03;57.36;101379.69;5036686;28;1910;-61
2022/07/18 00:58:36;;;;;;;;;;;;;;;15.51;62.36;101374.47;5036652;28;1545;-63
2022/07/18 01:03:45;;;;;;;;;;;;;;;18.08;57.82;101381.66;5036572;28;1147;-62
2022/07/18 01:06:11;;;;;;;;;;;;;;;15.54;64.06;101379.44;5037047;28;1025;-63
2022/07/18 01:08:38;;;;;;;;;;;;;;;18.70;58.05;101382.63;5036524;28;1084;-63
2022/07/18 01:11:03;;;;;;;;;;;;;;;15.89;62.98;101389.28;5036345;28;970;-63
2022/07/18 01:13:29;;;;;;;;;;;;;;;16.58;58.40;101394.22;5035836;28;954;-63
2022/07/18 01:15:54;;;;;;;;;;;;;;;17.18;53.96;101387.94;5038675;28;1989;-63
2022/07/18 01:18:20;;;;;;;;;;;;;;;17.20;52.40;101389.31;5046026;28;2592;-63
2022/07/18 01:20:45;;;;;;;;;;;;;;;17.29;51.10;101389.66;5038813;28;1096;-63
2022/07/18 01:23:10;;;;;;;;;;;;;;;17.33;50.25;101382.53;5036246;28;1057;-62
2022/07/18 01:25:36;;;;;;;;;;;;;;;17.35;49.71;101382.28;5035921;28;974;-63
2022/07/18 01:28:01;;;;;;;;;;;;;;;17.26;49.56;101379.19;5019837;28;1157;-63
2022/07/18 01:30:27;;;;;;;;;;;;;;;17.54;50.48;101382.69;5039239;28;1108;-63
2022/07/18 01:32:56;;;;;;;;;;;;;;;15.86;56.22;101390.63;5036184;28;1037;-63
2022/07/18 01:35:22;;;;;;;;;;;;;;;17.24;57.49;101403.38;5018043;28;1204;-63
2022/07/18 01:37:50;;;;;;;;;;;;;;;18.71;55.74;101394.50;5035723;28;1984;-62
2022/07/18 01:40:15;;;;;;;;;;;;;;;14.80;63.68;101411.41;5036316;28;1184;-63
2022/07/18 01:42:40;;;;;;;;;;;;;;;18.32;58.30;101409.53;5036030;28;1140;-62
2022/07/18 01:45:06;;;;;;;;;;;;;;;16.86;60.10;101410.72;5035752;28;986;-62
2022/07/18 01:47:32;;;;;;;;;;;;;;;15.98;60.11;101412.47;5035974;28;1073;-62
2022/07/18 01:49:57;;;;;;;;;;;;;;;17.13;53.96;101409.91;5039885;28;2402;-62
2022/07/18 01:52:22;;;;;;;;;;;;;;;17.25;51.88;101413.28;5039609;28;1223;-62
2022/07/18 01:54:48;;;;;;;;;;;;;;;17.21;51.12;101401.19;5040222;28;998;-62
2022/07/18 01:57:13;;;;;;;;;;;;;;;17.99;52.80;101405.25;5039962;28;1918;-62
2022/07/18 01:59:39;;;;;;;;;;;;;;;14.90;60.68;101397.09;5039984;28;1061;-61
2022/07/18 02:02:04;;;;;;;;;;;;;;;17.92;57.81;101405.50;5038792;28;923;-60
2022/07/18 02:07:18;;;;;;;;;;;;;;;15.99;60.46;101397.66;5040236;28;1005;-62
2022/07/18 02:09:43;;;;;;;;;;;;;;;17.00;54.41;101395.50;5040043;28;1081;-60
2022/07/18 02:12:09;;;;;;;;;;;;;;;17.16;52.32;101388.19;5039590;28;982;-60
2022/07/18 02:14:34;;;;;;;;;;;;;;;17.21;51.17;101390.19;5039738;28;1219;-60
2022/07/18 02:17:00;;;;;;;;;;;;;;;17.19;50.33;101392.34;5042549;28;1984;-60
2022/07/18 02:19:25;;;;;;;;;;;;;;;17.22;49.70;101397.31;5041879;28;2452;-61
2022/07/18 02:21:51;;;;;;;;;;;;;;;17.70;51.52;101403.72;5041035;28;1081;-61
2022/07/18 02:24:16;;;;;;;;;;;;;;;17.56;51.90;101410.78;5039843;28;1073;-61
2022/07/18 02:26:41;;;;;;;;;;;;;;;17.43;50.89;101404.63;5039283;28;1009;-61
2022/07/18 02:29:07;;;;;;;;;;;;;;;17.42;49.99;101402.16;5039222;28;958;-61
2022/07/18 02:31:32;;;;;;;;;;;;;;;17.34;49.35;101395.22;5045348;28;1085;-61
2022/07/18 02:33:58;;;;;;;;;;;;;;;17.32;49.15;101400.16;5039082;28;1009;-61
2022/07/18 02:36:23;;;;;;;;;;;;;;;17.32;48.65;101402.91;5038736;28;1989;-62
2022/07/18 02:38:49;;;;;;;;;;;;;;;17.29;48.22;101403.41;5038955;28;942;-60
2022/07/18 02:41:14;;;;;;;;;;;;;;;17.28;48.24;101405.34;5039268;28;993;-60
2022/07/18 02:43:40;;;;;;;;;;;;;;;17.57;49.28;101394.00;5039220;28;1013;-62
2022/07/18 02:46:05;;;;;;;;;;;;;;;15.88;55.83;101395.88;5038853;28;1065;-62
2022/07/18 02:48:30;;;;;;;;;;;;;;;17.33;56.34;101398.22;5039430;28;2586;-62
2022/07/18 02:50:56;;;;;;;;;;;;;;;19.27;53.68;101410.25;5039078;28;1018;-62
2022/07/18 02:53:23;;;;;;;;;;;;;;;14.98;62.81;101409.53;5038902;28;1029;-62
2022/07/18 02:55:50;;;;;;;;;;;;;;;18.47;56.98;101415.09;5039275;28;1139;-62
2022/07/18 02:58:16;;;;;;;;;;;;;;;17.19;59.80;101409.66;5039504;28;1977;-62
2022/07/18 03:00:41;;;;;;;;;;;;;;;15.99;60.45;101411.38;5038460;28;1187;-62
2022/07/18 03:03:07;;;;;;;;;;;;;;;17.19;53.92;101414.34;5038608;28;990;-62
2022/07/18 03:05:32;;;;;;;;;;;;;;;17.28;51.81;101415.53;5038681;28;1136;-63
2022/07/18 03:07:57;;;;;;;;;;;;;;;17.30;50.79;101418.00;5038514;28;1061;-62
2022/07/18 03:10:23;;;;;;;;;;;;;;;17.29;50.22;101419.91;5038785;28;1006;-64
2022/07/18 03:12:48;;;;;;;;;;;;;;;17.36;49.58;101439.78;5038421;28;1116;-63
2022/07/18 03:15:14;;;;;;;;;;;;;;;17.27;49.20;101435.84;5038702;28;1100;-61
2022/07/18 03:17:39;;;;;;;;;;;;;;;17.33;53.04;101431.22;5038265;28;1902;-63
2022/07/18 03:20:05;;;;;;;;;;;;;;;16.08;59.65;101448.25;5038380;28;2715;-63
2022/07/18 03:22:33;;;;;;;;;;;;;;;18.77;56.05;101430.03;5038176;28;1176;-62
2022/07/18 03:24:58;;;;;;;;;;;;;;;15.64;62.17;101441.81;5038486;28;1029;-62
2022/07/18 03:27:24;;;;;;;;;;;;;;;17.70;59.81;101436.72;5038520;28;990;-58
2022/07/18 03:29:49;;;;;;;;;;;;;;;18.79;56.42;101432.53;5043445;28;1216;-61
2022/07/18 03:32:14;;;;;;;;;;;;;;;15.44;65.21;101440.41;5038146;28;1065;-60
2022/07/18 03:34:41;;;;;;;;;;;;;;;18.83;58.27;101441.06;5037707;28;1014;-58
2022/07/18 03:37:07;;;;;;;;;;;;;;;16.29;62.47;101437.53;5043902;28;1984;-58
2022/07/18 03:39:32;;;;;;;;;;;;;;;16.30;59.82;101428.25;5037819;28;1030;-58
2022/07/18 03:41:58;;;;;;;;;;;;;;;17.19;54.18;101426.13;5038091;28;942;-64
2022/07/18 03:44:23;;;;;;;;;;;;;;;17.24;52.19;101444.63;5038100;28;1017;-62
2022/07/18 03:46:51;;;;;;;;;;;;;;;17.33;50.81;101437.53;5038008;28;1053;-63
2022/07/18 03:49:17;;;;;;;;;;;;;;;17.29;50.42;101441.88;5037522;28;2692;-60
2022/07/18 03:51:42;;;;;;;;;;;;;;;17.40;49.43;101442.81;5037391;28;1029;-62
2022/07/18 03:54:09;;;;;;;;;;;;;;;17.28;49.40;101446.56;5032918;28;1253;-59
2022/07/18 03:56:35;;;;;;;;;;;;;;;17.24;48.98;101439.13;5037135;28;1906;-58
2022/07/18 03:59:00;;;;;;;;;;;;;;;17.31;48.61;101450.72;5040110;28;1356;-61
2022/07/18 04:01:25;;;;;;;;;;;;;;;17.20;48.62;101459.97;5038201;28;1217;-61
2022/07/18 04:03:51;;;;;;;;;;;;;;;18.18;50.94;101452.41;5043389;28;1093;-61
2022/07/18 04:06:16;;;;;;;;;;;;;;;14.90;59.66;101446.38;5042356;28;1492;-62
2022/07/18 04:08:42;;;;;;;;;;;;;;;18.11;55.91;101447.97;5037358;28;1287;-62
2022/07/18 04:11:07;;;;;;;;;;;;;;;17.77;57.28;101459.31;5038608;28;1277;-63
2022/07/18 04:13:33;;;;;;;;;;;;;;;16.02;62.35;101462.13;5038626;28;1526;-64
2022/07/18 04:15:58;;;;;;;;;;;;;;;18.92;57.03;101462.31;5040303;28;1886;-62
2022/07/18 04:18:23;;;;;;;;;;;;;;;15.72;62.75;101464.19;5037808;28;1989;-62
2022/07/18 04:20:49;;;;;;;;;;;;;;;16.68;57.28;101466.84;5038142;28;1149;-63
2022/07/18 04:23:15;;;;;;;;;;;;;;;17.13;53.50;101464.84;5049002;28;958;-62
2022/07/18 04:25:41;;;;;;;;;;;;;;;17.31;51.45;101472.72;5042160;28;1069;-62
2022/07/18 04:28:07;;;;;;;;;;;;;;;17.33;50.71;101462.25;5040645;28;974;-64
2022/07/18 04:30:33;;;;;;;;;;;;;;;17.26;50.10;101475.41;5040403;28;1124;-65
2022/07/18 04:33:00;;;;;;;;;;;;;;;17.19;49.61;101475.63;5043322;28;1049;-64
2022/07/18 04:35:25;;;;;;;;;;;;;;;17.23;49.07;101476.75;5046979;28;1128;-61
2022/07/18 04:37:51;;;;;;;;;;;;;;;17.22;48.81;101488.00;5036257;28;1909;-63
2022/07/18 04:40:16;;;;;;;;;;;;;;;17.22;53.88;101479.75;5036113;28;1257;-64
2022/07/18 04:42:42;;;;;;;;;;;;;;;15.74;58.04;101485.88;5036586;28;1454;-64
2022/07/18 04:45:07;;;;;;;;;;;;;;;18.53;55.40;101495.78;5038812;28;1252;-64
2022/07/18 04:47:33;;;;;;;;;;;;;;;15.47;62.01;101493.91;5039203;28;1302;-64
2022/07/18 04:49:58;;;;;;;;;;;;;;;17.60;58.85;101502.66;5037113;28;1926;-64
2022/07/18 04:52:24;;;;;;;;;;;;;;;19.02;55.86;101494.59;5036938;28;1301;-62
2022/07/18 04:54:50;;;;;;;;;;;;;;;15.12;64.64;101516.88;5043163;28;1192;-62
2022/07/18 04:57:16;;;;;;;;;;;;;;;18.36;58.57;101508.94;5045404;28;1975;-65
2022/07/18 04:59:41;;;;;;;;;;;;;;;16.20;62.58;101508.50;5040923;28;1388;-63
2022/07/18 05:02:08;;;;;;;;;;;;;;;16.43;58.95;101523.91;5036167;28;1203;-63
2022/07/18 05:04:34;;;;;;;;;;;;;;;17.21;53.77;101519.34;5038752;28;1423;-62
2022/07/18 05:06:59;;;;;;;;;;;;;;;17.23;51.88;101519.91;5043374;28;1521;-63
2022/07/18 05:09:25;;;;;;;;;;;;;;;17.25;50.92;101529.56;5039890;28;1266;-62
2022/07/18 05:11:50;;;;;;;;;;;;;;;17.23;50.21;101525.41;5035141;28;1259;-61
2022/07/18 05:14:16;;;;;;;;;;;;;;;17.31;49.53;101524.94;5035104;28;1205;-60
2022/07/18 05:16:41;;;;;;;;;;;;;;;17.31;49.11;101529.63;5031479;28;1992;-61
2022/07/18 05:19:07;;;;;;;;;;;;;;;18.14;51.60;101537.44;5038696;28;1290;-61
2022/07/18 05:21:32;;;;;;;;;;;;;;;14.93;60.03;101538.97;5042444;28;1299;-60
2022/07/18 05:23:57;;;;;;;;;;;;;;;17.79;56.55;101547.91;5036002;28;1212;-61
2022/07/18 05:26:23;;;;;;;;;;;;;;;18.01;56.79;101536.00;5043622;28;1302;-61
2022/07/18 05:28:48;;;;;;;;;;;;;;;15.68;60.94;101545.28;5046431;28;1159;-60
2022/07/18 05:31:14;;;;;;;;;;;;;;;18.64;56.98;101540.75;5036332;28;1140;-60
2022/07/18 05:33:39;;;;;;;;;;;;;;;15.79;62.39;101540.81;5042729;28;1401;-60
2022/07/18 05:36:05;;;;;;;;;;;;;;;16.63;57.51;101552.72;5037406;28;1985;-60
2022/07/18 05:38:30;;;;;;;;;;;;;;;17.21;53.37;101538.59;5035063;28;1248;-60
2022/07/18 05:40:56;;;;;;;;;;;;;;;17.33;51.46;101533.75;5034957;28;1288;-60
2022/07/18 05:43:21;;;;;;;;;;;;;;;17.21;50.61;101544.91;5035009;28;1291;-61
2022/07/18 05:45:46;;;;;;;;;;;;;;;17.23;49.98;101552.88;5034478;28;1177;-61
2022/07/18 05:48:12;;;;;;;;;;;;;;;17.21;49.56;101558.66;5037333;28;1275;-60
2022/07/18 05:50:37;;;;;;;;;;;;;;;17.26;48.96;101558.72;5034403;28;1247;-63
2022/07/18 05:53:03;;;;;;;;;;;;;;;18.47;48.55;101572.06;5037655;28;1209;-64
2022/07/18 05:55:28;;;;;;;;;;;;;;;18.05;50.03;101570.16;5038011;28;1196;-64
2022/07/18 05:57:54;;;;;;;;;;;;;;;17.90;50.86;101575.50;5035440;28;1960;-62
2022/07/18 06:00:19;;;;;;;;;;;;;;;17.80;51.81;101590.00;5036086;28;1279;-62
2022/07/18 06:02:46;;;;;;;;;;;;;;;17.73;52.28;101573.72;5038649;28;1386;-63
2022/07/18 06:05:12;;;;;;;;;;;;;;;17.65;52.50;101576.94;5034822;28;1285;-63
2022/07/18 06:07:37;;;;;;;;;;;;;;;17.58;52.96;101568.06;5044709;28;1140;-64
2022/07/18 06:10:03;;;;;;;;;;;;;;;17.58;53.16;101579.06;5037772;28;1521;-65
2022/07/18 06:12:29;;;;;;;;;;;;;;;17.50;53.57;101576.78;5040191;28;1228;-65
2022/07/18 06:14:54;;;;;;;;;;;;;;;17.49;53.87;101577.88;5037260;28;1573;-64
2022/07/18 06:17:20;;;;;;;;;;;;;;;17.45;54.01;101583.91;5037112;28;2004;-66
2022/07/18 06:19:45;;;;;;;;;;;;;;;17.39;54.35;101584.09;5036131;28;1351;-62
2022/07/18 06:22:11;;;;;;;;;;;;;;;17.35;54.65;101583.81;5035735;28;1401;-63
2022/07/18 06:24:36;;;;;;;;;;;;;;;17.34;54.65;101597.81;5048094;28;1068;-65
2022/07/18 06:27:02;;;;;;;;;;;;;;;17.28;55.07;101596.94;5035413;28;1180;-62
2022/07/18 06:29:27;;;;;;;;;;;;;;;17.27;55.04;101593.34;5037459;28;1477;-62
2022/07/18 06:31:54;;;;;;;;;;;;;;;17.22;55.35;101600.69;5035085;28;1247;-61
2022/07/18 06:34:19;;;;;;;;;;;;;;;17.22;55.28;101586.94;5038484;28;1149;-64
2022/07/18 06:36:45;;;;;;;;;;;;;;;17.17;55.74;101593.22;5039517;28;1984;-62
2022/07/18 06:39:11;;;;;;;;;;;;;;;17.13;55.62;101597.59;5042971;28;1248;-61
2022/07/18 06:41:38;;;;;;;;;;;;;;;17.14;55.84;101596.50;5046250;28;1367;-61
2022/07/18 06:44:06;;;;;;;;;;;;;;;17.08;56.11;101592.88;5021910;28;1522;-61
2022/07/18 06:46:31;;;;;;;;;;;;;;;17.15;55.88;101592.63;5043492;28;1060;-64
2022/07/18 06:48:57;;;;;;;;;;;;;;;17.06;56.23;101577.72;5041063;28;1014;-64
2022/07/18 06:51:22;;;;;;;;;;;;;;;17.09;56.08;101588.19;5042907;28;1203;-63
2022/07/18 06:53:47;;;;;;;;;;;;;;;17.06;56.42;101581.28;5038469;28;1208;-60
2022/07/18 06:56:13;;;;;;;;;;;;;;;16.98;56.48;101579.00;5045427;28;1914;-60
2022/07/18 06:58:40;;;;;;;;;;;;;;;17.00;57.12;101576.84;5046042;28;978;-63
2022/07/18 07:01:06;;;;;;;;;;;;;;;17.06;57.55;101581.28;5038434;28;1346;-64
2022/07/18 07:03:32;;;;;;;;;;;;;;;17.13;57.68;101574.78;5041308;28;1244;-67
2022/07/18 07:05:57;;;;;;;;;;;;;;;17.15;57.87;101565.16;5038286;28;1250;-64
2022/07/18 07:08:23;;;;;;;;;;;;;;;17.25;57.65;101575.44;5041857;28;1172;-66
2022/07/18 07:10:48;;;;;;;;;;;;;;;17.24;57.58;101571.88;5039301;28;1026;-64
2022/07/18 07:13:13;;;;;;;;;;;;;;;17.27;57.72;101573.28;5039805;28;1091;-61
2022/07/18 07:15:40;;;;;;;;;;;;;;;17.30;57.43;101575.50;5049098;28;1515;-65
2022/07/18 07:18:06;;;;;;;;;;;;;;;17.20;57.74;101567.97;5044981;28;1909;-56
2022/07/18 07:20:34;;;;;;;;;;;;;;;17.19;57.41;101574.56;5039973;28;970;-60
2022/07/18 07:23:04;;;;;;;;;;;;;;;17.12;57.33;101589.59;5038061;28;1121;-61
2022/07/18 07:25:30;;;;;;;;;;;;;;;17.08;57.52;101586.53;5038914;28;1053;-65
2022/07/18 07:27:55;;;;;;;;;;;;;;;17.04;57.31;101588.97;5038724;28;1265;-61
2022/07/18 07:30:21;;;;;;;;;;;;;;;17.09;57.10;101585.44;5037023;28;1271;-62
2022/07/18 07:32:47;;;;;;;;;;;;;;;16.99;57.22;101591.66;5040216;28;1131;-61
2022/07/18 07:35:13;;;;;;;;;;;;;;;16.97;57.16;101588.34;5044941;28;1017;-61
2022/07/18 07:37:39;;;;;;;;;;;;;;;17.00;56.88;101596.06;5037442;28;1967;-63
2022/07/18 07:40:05;;;;;;;;;;;;;;;16.92;57.08;101593.75;5039047;28;1092;-64
2022/07/18 07:42:30;;;;;;;;;;;;;;;16.90;56.81;101593.16;5039216;28;1057;-64
2022/07/18 07:44:56;;;;;;;;;;;;;;;16.88;56.82;101598.06;5038038;28;1061;-63
2022/07/18 07:47:21;;;;;;;;;;;;;;;16.85;57.11;101598.59;5037587;28;1195;-63
2022/07/18 07:49:46;;;;;;;;;;;;;;;16.87;56.99;101604.66;5042411;28;1259;-61
2022/07/18 07:52:13;;;;;;;;;;;;;;;16.83;56.92;101595.25;5037453;28;1265;-62
2022/07/18 07:54:41;;;;;;;;;;;;;;;16.86;57.02;101603.00;5037799;28;1536;-63
2022/07/18 07:57:07;;;;;;;;;;;;;;;16.84;56.68;101599.66;5037010;28;1910;-67
2022/07/18 07:59:32;;;;;;;;;;;;;;;16.82;56.92;101604.59;5043579;28;1239;-64
2022/07/18 08:01:58;;;;;;;;;;;;;;;16.77;56.82;101595.22;5021417;28;1197;-66
2022/07/18 08:04:24;;;;;;;;;;;;;;;16.74;57.18;101595.69;5036923;28;1181;-61
2022/07/18 08:06:49;;;;;;;;;;;;;;;16.76;57.06;101603.69;5037185;28;1167;-63
2022/07/18 08:09:15;;;;;;;;;;;;;;;16.73;57.04;101596.81;5036742;28;1267;-63
2022/07/18 08:11:40;;;;;;;;;;;;;;;16.75;56.98;101602.84;5038388;28;1497;-61
2022/07/18 08:14:06;;;;;;;;;;;;;;;16.74;57.03;101600.38;5036584;28;1560;-62
2022/07/18 08:16:31;;;;;;;;;;;;;;;16.73;57.11;101615.19;5041469;28;1960;-60
2022/07/18 08:18:57;;;;;;;;;;;;;;;16.64;57.36;101609.28;5025596;28;1093;-60
2022/07/18 08:21:22;;;;;;;;;;;;;;;16.68;57.07;101613.19;5038775;28;958;-60
2022/07/18 08:23:48;;;;;;;;;;;;;;;16.65;57.27;101618.34;5036913;28;1288;-61
2022/07/18 08:26:14;;;;;;;;;;;;;;;16.65;57.20;101623.84;5036731;28;1002;-63
2022/07/18 08:28:39;;;;;;;;;;;;;;;16.62;57.10;101621.63;5035834;28;935;-63
2022/07/18 08:31:04;;;;;;;;;;;;;;;16.61;57.10;101623.53;5035271;28;1469;-62
2022/07/18 08:33:30;;;;;;;;;;;;;;;16.63;57.02;101620.53;5046769;28;1193;-65
2022/07/18 08:35:55;;;;;;;;;;;;;;;16.60;56.86;101621.88;5041693;28;1179;-63
2022/07/18 08:38:21;;;;;;;;;;;;;;;16.56;57.02;101612.47;5041984;28;1914;-63
2022/07/18 08:40:49;;;;;;;;;;;;;;;16.57;56.91;101616.88;5042763;28;890;-61
2022/07/18 08:43:15;;;;;;;;;;;;;;;16.55;56.87;101611.66;5023297;28;1109;-63
2022/07/18 08:45:41;;;;;;;;;;;;;;;16.54;57.02;101611.91;5037430;28;867;-62
2022/07/18 08:48:07;;;;;;;;;;;;;;;16.54;57.09;101617.41;5039516;28;1144;-62
2022/07/18 08:50:32;;;;;;;;;;;;;;;16.52;57.09;101608.56;5039729;28;1272;-61
2022/07/18 08:52:58;;;;;;;;;;;;;;;16.46;57.39;101604.94;5036542;28;1248;-63
2022/07/18 08:55:23;;;;;;;;;;;;;;;16.48;57.25;101604.66;5021313;28;1042;-63
2022/07/18 08:57:49;;;;;;;;;;;;;;;16.49;57.10;101603.59;5039343;28;1977;-63
2022/07/18 09:00:15;;;;;;;;;;;;;;;16.51;56.87;101606.91;5037823;28;1127;-62
2022/07/18 09:02:40;;;;;;;;;;;;;;;16.49;57.01;101600.84;5037019;28;1207;-62
2022/07/18 09:05:16;;;;;;;;;;;;;;;16.52;57.08;101603.09;5043370;28;908;-62
2022/07/18 09:07:41;;;;;;;;;;;;;;;16.49;57.11;101609.09;5044657;28;985;-62
2022/07/18 09:10:07;;;;;;;;;;;;;;;16.46;57.00;101606.84;5036894;28;1406;-63
2022/07/18 09:12:32;;;;;;;;;;;;;;;16.47;57.01;101603.03;5036427;28;894;-63
2022/07/18 09:15:04;;;;;;;;;;;;;;;16.49;56.81;101603.59;5020211;28;1248;-64
2022/07/18 09:17:29;;;;;;;;;;;;;;;16.45;57.12;101607.94;5038825;28;2034;-62
2022/07/18 09:20:03;;;;;;;;;;;;;;;16.43;57.10;101609.00;5036924;28;994;-63
2022/07/18 09:22:29;;;;;;;;;;;;;;;16.40;57.29;101609.50;5036555;28;1195;-60
2022/07/18 09:24:58;;;;;;;;;;;;;;;16.42;57.29;101601.03;5041538;28;1117;-58
2022/07/18 09:27:26;;;;;;;;;;;;;;;16.41;57.42;101608.44;5035155;28;1211;-59
2022/07/18 09:30:10;;;;;;;;;;;;;;;16.38;57.15;101610.84;5039537;28;962;-60
2022/07/18 09:32:35;;;;;;;;;;;;;;;16.41;57.22;101610.34;5034905;28;998;-56
2022/07/18 09:35:11;;;;;;;;;;;;;;;16.45;57.13;101603.25;5040103;28;966;-56
2022/07/18 09:37:36;;;;;;;;;;;;;;;16.42;57.36;101604.63;5037832;28;1906;-56
2022/07/18 09:40:22;;;;;;;;;;;;;;;16.38;57.23;101608.94;5038110;28;969;-56
2022/07/18 09:42:48;;;;;;;;;;;;;;;16.37;57.43;101610.03;5034780;28;1164;-56
2022/07/18 09:45:13;;;;;;;;;;;;;;;16.38;57.06;101608.94;5036536;28;1249;-57
2022/07/18 09:47:50;;;;;;;;;;;;;;;16.41;57.15;101607.59;5033942;28;1223;-60
2022/07/18 09:50:24;;;;;;;;;;;;;;;16.39;57.15;101609.78;5029218;28;1375;-61
2022/07/18 09:53:00;;;;;;;;;;;;;;;16.33;57.07;101616.28;5038265;28;1185;-61
2022/07/18 09:55:25;;;;;;;;;;;;;;;16.37;57.18;101612.78;5031953;28;1193;-62
2022/07/18 09:57:58;;;;;;;;;;;;;;;16.33;57.02;101611.59;5037722;28;1909;-60
2022/07/18 10:00:24;;;;;;;;;;;;;;;16.34;57.27;101618.75;5042503;28;1217;-58
2022/07/18 10:02:50;;;;;;;;;;;;;;;16.31;57.02;101607.44;5023494;28;1291;-57
2022/07/18 10:05:15;;;;;;;;;;;;;;;16.37;57.14;101618.25;5037333;28;1192;-59
2022/07/18 10:07:41;;;;;;;;;;;;;;;16.30;57.42;101614.00;5039358;28;1228;-58
2022/07/18 10:10:06;;;;;;;;;;;;;;;16.35;56.96;101603.94;5043319;28;1197;-58
2022/07/18 10:12:32;;;;;;;;;;;;;;;16.35;57.08;101614.91;5022534;28;1319;-57
2022/07/18 10:14:57;;;;;;;;;;;;;;;16.30;57.09;101620.34;5039773;28;1212;-58
2022/07/18 10:17:23;;;;;;;;;;;;;;;16.36;57.06;101611.09;5042192;28;1921;-60
2022/07/18 10:19:48;;;;;;;;;;;;;;;16.31;56.93;101616.50;5041325;28;973;-58
2022/07/18 10:22:14;;;;;;;;;;;;;;;16.33;57.15;101613.53;5040232;28;1208;-62
2022/07/18 10:24:39;;;;;;;;;;;;;;;16.29;57.12;101610.44;5018478;28;1321;-58
2022/07/18 10:27:18;;;;;;;;;;;;;;;16.25;57.30;101604.63;5039727;28;1290;-61
2022/07/18 10:30:02;;;;;;;;;;;;;;;16.28;56.96;101599.72;5033055;28;1169;-58
2022/07/18 10:32:34;;;;;;;;;;;;;;;16.24;57.01;101607.63;5037386;28;1280;-59
2022/07/18 10:34:59;;;;;;;;;;;;;;;16.29;56.98;101596.72;5041082;28;1151;-57
2022/07/18 10:37:25;;;;;;;;;;;;;;;16.25;57.17;101584.59;5040549;28;2000;-59
2022/07/18 10:39:51;;;;;;;;;;;;;;;16.24;57.17;101591.16;5036707;28;1152;-58
2022/07/18 10:42:18;;;;;;;;;;;;;;;16.22;57.09;101599.63;5019689;28;930;-58
2022/07/18 10:44:44;;;;;;;;;;;;;;;16.29;57.31;101596.72;5045564;28;958;-58
2022/07/18 10:47:23;;;;;;;;;;;;;;;16.29;57.04;101587.66;5040095;28;1375;-58
2022/07/18 10:49:57;;;;;;;;;;;;;;;16.24;57.15;101597.47;5038467;28;978;-60
2022/07/18 10:52:23;;;;;;;;;;;;;;;16.32;56.97;101587.97;5041554;28;1143;-59
2022/07/18 10:55:16;;;;;;;;;;;;;;;16.24;57.18;101582.91;5040642;28;1087;-60
2022/07/18 10:57:41;;;;;;;;;;;;;;;16.24;57.18;101569.19;5037470;28;1969;-60
2022/07/18 11:00:10;;;;;;;;;;;;;;;16.28;57.19;101581.31;5042563;28;1232;-58
2022/07/18 11:02:35;;;;;;;;;;;;;;;16.30;57.01;101579.19;5039428;28;1089;-61
2022/07/18 11:05:01;;;;;;;;;;;;;;;16.31;57.10;101564.34;5044990;28;1310;-60
2022/07/18 11:07:26;;;;;;;;;;;;;;;16.34;57.37;101574.84;5038646;28;1298;-59
2022/07/18 11:09:52;;;;;;;;;;;;;;;16.33;57.56;101558.63;5038436;28;1258;-59
2022/07/18 11:12:18;;;;;;;;;;;;;;;16.42;57.51;101566.19;5036210;28;1376;-59
2022/07/18 11:14:58;;;;;;;;;;;;;;;16.35;57.60;101564.69;5039809;28;1188;-58
2022/07/18 11:17:42;;;;;;;;;;;;;;;16.38;57.31;101544.97;5039338;28;1909;-60
2022/07/18 11:20:31;;;;;;;;;;;;;;;16.33;57.46;101555.91;5034615;28;1286;-59
2022/07/18 11:22:56;;;;;;;;;;;;;;;16.32;57.31;101555.03;5030958;28;1219;-58
2022/07/18 11:25:28;;;;;;;;;;;;;;;16.31;57.27;101550.63;5042170;28;998;-57
2022/07/18 11:27:54;;;;;;;;;;;;;;;16.32;57.29;101552.31;5038942;28;1195;-57
2022/07/18 11:30:19;;;;;;;;;;;;;;;16.31;57.41;101547.06;5035675;28;1407;-57
2022/07/18 11:32:45;;;;;;;;;;;;;;;16.30;57.25;101550.88;5037436;28;1302;-58
2022/07/18 11:35:12;;;;;;;;;;;;;;;16.24;57.32;101555.47;5040137;28;941;-59
2022/07/18 11:37:37;;;;;;;;;;;;;;;16.26;57.20;101539.59;5030300;28;1906;-58
2022/07/18 11:40:06;;;;;;;;;;;;;;;16.23;57.14;101537.38;5042168;28;1140;-59
2022/07/18 11:42:36;;;;;;;;;;;;;;;16.26;57.04;101531.38;5041452;28;1167;-60
2022/07/18 11:45:01;;;;;;;;;;;;;;;16.23;57.16;101534.63;5044403;28;1009;-56
2022/07/18 11:47:27;;;;;;;;;;;;;;;16.20;57.48;101532.34;5042687;28;1148;-61
2022/07/18 11:49:56;;;;;;;;;;;;;;;16.21;57.38;101529.34;5034357;28;1406;-61
2022/07/18 11:52:21;;;;;;;;;;;;;;;16.24;57.00;101528.03;5042936;28;1368;-59
2022/07/18 11:54:46;;;;;;;;;;;;;;;16.32;56.83;101519.38;5040761;28;962;-58
2022/07/18 11:57:12;;;;;;;;;;;;;;;16.24;57.05;101508.81;5039087;28;1917;-57
2022/07/18 11:59:38;;;;;;;;;;;;;;;16.40;57.32;101507.94;5041729;28;1064;-59
2022/07/18 12:02:04;;;;;;;;;;;;;;;16.47;57.27;101517.94;5038115;28;1164;-58
2022/07/18 12:04:29;;;;;;;;;;;;;;;16.44;57.48;101513.78;5041582;28;1018;-58
2022/07/18 12:07:14;;;;;;;;;;;;;;;16.46;57.32;101502.53;5022409;28;1245;-63
2022/07/18 12:09:39;;;;;;;;;;;;;;;16.48;57.32;101503.09;5040731;28;1038;-64
2022/07/18 12:12:09;;;;;;;;;;;;;;;16.42;57.13;101500.31;5037514;28;1184;-60
2022/07/18 12:14:34;;;;;;;;;;;;;;;16.40;57.32;101499.72;5038471;28;1180;-63
2022/07/18 12:17:00;;;;;;;;;;;;;;;16.48;56.79;101503.94;5038803;28;1990;-61
2022/07/18 12:19:35;;;;;;;;;;;;;;;16.42;57.09;101503.06;5020068;28;915;-64
2022/07/18 12:22:08;;;;;;;;;;;;;;;16.42;57.00;101504.94;5031689;28;1108;-61
2022/07/18 12:24:37;;;;;;;;;;;;;;;16.42;57.08;101499.47;5041450;28;1436;-64
2022/07/18 12:27:09;;;;;;;;;;;;;;;16.42;57.13;101493.97;5044543;28;1155;-65
2022/07/18 12:29:53;;;;;;;;;;;;;;;16.39;57.02;101498.03;5036210;28;1049;-60
2022/07/18 12:32:22;;;;;;;;;;;;;;;16.39;56.81;101489.81;5034378;28;1132;-57
2022/07/18 12:34:53;;;;;;;;;;;;;;;16.40;57.11;101496.16;5037100;28;1211;-62
2022/07/18 12:37:22;;;;;;;;;;;;;;;16.41;56.74;101493.16;5039881;28;1910;-61
2022/07/18 12:39:48;;;;;;;;;;;;;;;16.42;56.91;101500.31;5039520;28;1367;-60
2022/07/18 12:42:26;;;;;;;;;;;;;;;16.36;56.72;101504.06;5019174;28;1259;-57
2022/07/18 12:44:51;;;;;;;;;;;;;;;16.40;56.72;101499.72;5043774;28;974;-61
2022/07/18 12:47:17;;;;;;;;;;;;;;;16.42;56.57;101497.56;5038088;28;1163;-61
2022/07/18 12:49:42;;;;;;;;;;;;;;;16.38;56.84;101498.31;5043458;28;1006;-62